Cancun, Mexico

8:38 PM EST on August 29, 2016 (GMT -0500)
Paseo del mar Residencial Campestre Cancun | | Change Station

Elev 26 ft 21.10 °N, 86.85 °W | Updated 6 seconds ago

Thunderstorms and Rain
Thunderstorm Rain
79.7 °F
Feels Like 85 °F
N
0.0
Wind Variable Wind from East
Gusts 0.0 mph

Today
High -- | Low -- °F
--% Chance of Precip.
Yesterday
High -- | Low -- °F
Precip. -- in
Pressure 29.83 in
Visibility 4.0 miles
Clouds Overcast 1200 ft
Heat Index 85 °F
Dew Point 78 °F
Humidity 94%
Rainfall 1.22 in
Snow Depth Not available.
6:30 AM 7:05 PM
Waning Crescent, 6% visible
METAR MMCZ 300053Z 10005KT 4SM TSRA OVC012CB 22/22 A2983 RMK 64105 8/3// LTGCC
Pressure 29.83 in
Visibility 4.0 miles
Clouds Overcast 1200 ft
Heat Index 85 °F
Dew Point 78 °F
Humidity 94%
Rainfall 1.22 in
Snow Depth Not available.
6:30 AM 7:05 PM
Waning Crescent, 6% visible
METAR MMCZ 300053Z 10005KT 4SM TSRA OVC012CB 22/22 A2983 RMK 64105 8/3// LTGCC

10-Day Weather Forecast

No radar image for this location.
×

Almanac

Astronomy

Aug. 29, 2016 Rise Set
Actual Time
Civil Twilight
Nautical Twilight
Astronomical Twilight
Moon
Length of Visible Light
Length of Day
Tomorrow will be .
, % of the Moon is Illuminated

Today's Extremes

Country Highs Country Lows

Community

WunderPhotos

Upload Photos

1,935,709 photos uploaded!

WunderBlog® & News

Nearby

Air Quality

  Air Quality AQ Index Pollutant
Not available.

Snow Depth

Station Depth Elevation

Earthquake Activity

City Distance Mag. Time & Date
Minimum magnitude displayed is 2.5.

Coastal Water Temperatures

Place Temperature

Stations

Nearby Weather Stations

Station Location Temp. Windchill Dew Point Humidity Wind Precip. Elev Updated Type